createdAt,value
2022-10-24T00:01:33.891Z,18.50
2022-10-24T00:04:02.138Z,18.50
2022-10-24T00:06:30.280Z,18.40
2022-10-24T00:08:58.460Z,18.40
2022-10-24T00:11:29.137Z,18.30
2022-10-24T00:13:59.622Z,18.30
2022-10-24T00:16:28.715Z,18.30
2022-10-24T00:18:56.969Z,18.10
2022-10-24T00:21:25.162Z,18.10
2022-10-24T00:23:53.274Z,18.20
2022-10-24T00:26:21.446Z,18.20
2022-10-24T00:28:50.974Z,18.20
2022-10-24T00:31:20.456Z,18.10
2022-10-24T00:33:49.260Z,18.10
2022-10-24T00:36:20.720Z,18.10
2022-10-24T00:38:49.431Z,18.20
2022-10-24T00:41:19.124Z,18.20
2022-10-24T00:43:47.267Z,18.20
2022-10-24T00:46:17.828Z,18.20
2022-10-24T00:48:49.373Z,18.30
2022-10-24T00:51:24.792Z,18.40
2022-10-24T00:56:35.449Z,18.40
2022-10-24T00:59:05.040Z,18.40
2022-10-24T01:01:35.125Z,18.40
2022-10-24T01:04:03.831Z,18.40
2022-10-24T01:06:43.797Z,18.30
2022-10-24T01:09:22.751Z,18.40
2022-10-24T01:12:04.261Z,18.40
2022-10-24T01:14:42.202Z,18.50
2022-10-24T01:17:17.920Z,18.50
2022-10-24T01:20:13.783Z,18.30
2022-10-24T01:22:49.596Z,18.20
2022-10-24T01:25:22.576Z,18.20
2022-10-24T01:28:02.269Z,18.10
2022-10-24T01:30:35.033Z,18.20
2022-10-24T01:33:07.934Z,18.10
2022-10-24T01:35:40.507Z,18.10
2022-10-24T01:38:15.812Z,18.00
2022-10-24T01:40:52.446Z,17.90
2022-10-24T01:43:26.949Z,17.80
2022-10-24T01:46:02.001Z,17.70
2022-10-24T01:48:34.380Z,17.60
2022-10-24T01:51:04.293Z,17.50
2022-10-24T01:53:33.017Z,17.50
2022-10-24T01:56:01.879Z,17.50
2022-10-24T01:58:30.047Z,17.40
2022-10-24T02:01:04.270Z,17.40
2022-10-24T02:03:35.355Z,17.60
2022-10-24T02:06:09.180Z,17.50
2022-10-24T02:08:41.427Z,17.50
2022-10-24T02:11:10.805Z,17.50
2022-10-24T02:13:46.301Z,17.40
2022-10-24T02:16:18.695Z,17.40
2022-10-24T02:18:48.193Z,17.50
2022-10-24T02:21:29.523Z,17.60
2022-10-24T02:24:02.532Z,17.60
2022-10-24T02:26:34.978Z,17.60
2022-10-24T02:29:08.454Z,17.40
2022-10-24T02:31:42.247Z,17.40
2022-10-24T02:34:12.994Z,17.30
2022-10-24T02:36:42.423Z,17.20
2022-10-24T02:39:12.991Z,17.20
2022-10-24T02:41:43.184Z,17.10
2022-10-24T02:44:13.677Z,17.10
2022-10-24T02:46:44.868Z,17.10
2022-10-24T02:49:13.479Z,17.00
2022-10-24T02:51:44.817Z,16.90
2022-10-24T02:54:13.232Z,16.80
2022-10-24T02:56:45.054Z,16.70
2022-10-24T02:59:13.126Z,16.70
2022-10-24T03:01:42.711Z,16.70
2022-10-24T03:04:10.906Z,16.60
2022-10-24T03:06:39.290Z,16.70
2022-10-24T03:09:07.380Z,16.70
2022-10-24T03:11:35.861Z,16.60
2022-10-24T03:14:04.043Z,16.60
2022-10-24T03:16:32.338Z,16.50
2022-10-24T03:19:01.810Z,16.40
2022-10-24T03:21:29.961Z,16.30
2022-10-24T03:23:58.082Z,16.20
2022-10-24T03:26:26.262Z,16.30
2022-10-24T03:28:54.399Z,16.30
2022-10-24T03:31:22.579Z,16.30
2022-10-24T03:33:50.589Z,16.40
2022-10-24T03:36:20.309Z,16.30
2022-10-24T03:38:48.403Z,16.30
2022-10-24T03:41:16.547Z,16.30
2022-10-24T03:43:44.771Z,16.20
2022-10-24T03:46:14.325Z,16.20
2022-10-24T03:48:42.503Z,16.00
2022-10-24T03:51:10.678Z,15.90
2022-10-24T03:53:40.217Z,15.90
2022-10-24T03:56:09.083Z,15.90
2022-10-24T03:58:37.124Z,15.90
2022-10-24T04:01:05.657Z,15.90
2022-10-24T04:03:33.911Z,15.90
2022-10-24T04:06:01.962Z,15.90
2022-10-24T04:08:30.137Z,15.80
2022-10-24T04:10:59.656Z,15.70
2022-10-24T04:13:27.780Z,15.70
2022-10-24T04:15:55.831Z,15.80
2022-10-24T04:18:23.936Z,15.70
2022-10-24T04:20:52.160Z,15.70
2022-10-24T04:23:20.475Z,15.60
2022-10-24T04:25:48.787Z,15.70
2022-10-24T04:28:18.317Z,15.60
2022-10-24T04:30:49.737Z,15.60
2022-10-24T04:33:18.165Z,15.60
2022-10-24T04:35:49.245Z,15.50
2022-10-24T04:38:17.645Z,15.50
2022-10-24T04:40:48.269Z,15.40
2022-10-24T04:43:18.175Z,15.40
2022-10-24T04:45:46.459Z,15.40
2022-10-24T04:48:15.600Z,15.50
2022-10-24T04:50:48.691Z,15.50
2022-10-24T04:53:17.253Z,15.50
2022-10-24T04:55:45.946Z,15.50
2022-10-24T04:58:14.319Z,15.50
2022-10-24T05:00:46.701Z,15.50
2022-10-24T05:03:15.132Z,15.50
2022-10-24T05:05:43.576Z,15.70
2022-10-24T05:08:12.366Z,15.80
2022-10-24T05:10:40.668Z,16.30
2022-10-24T05:13:09.173Z,16.50
2022-10-24T05:15:37.301Z,16.60
2022-10-24T05:18:07.106Z,16.70
2022-10-24T05:20:35.428Z,16.70
2022-10-24T05:23:03.533Z,16.70
2022-10-24T05:25:31.690Z,16.70
2022-10-24T05:27:59.786Z,16.70
2022-10-24T05:30:28.378Z,16.70
2022-10-24T05:32:56.572Z,16.60
2022-10-24T05:35:26.025Z,16.60
2022-10-24T05:37:54.051Z,16.60
2022-10-24T05:40:22.170Z,16.50
2022-10-24T05:42:52.234Z,16.50
2022-10-24T05:45:20.470Z,16.50
2022-10-24T05:47:48.960Z,16.40
2022-10-24T05:50:17.265Z,16.40
2022-10-24T05:52:47.285Z,16.60
2022-10-24T05:55:17.917Z,16.60
2022-10-24T05:57:47.293Z,16.60
2022-10-24T06:00:17.728Z,16.50
2022-10-24T06:05:15.761Z,16.50
2022-10-24T06:07:44.255Z,16.50
2022-10-24T06:10:15.238Z,16.60
2022-10-24T06:12:43.725Z,16.60
2022-10-24T06:15:13.778Z,16.60
2022-10-24T06:17:42.074Z,16.60
2022-10-24T06:20:11.074Z,16.70
2022-10-24T06:22:39.445Z,16.70
2022-10-24T06:25:08.047Z,16.70
2022-10-24T06:27:37.478Z,16.60
2022-10-24T06:30:06.506Z,16.70
2022-10-24T06:32:34.593Z,16.50
2022-10-24T06:35:03.170Z,16.60
2022-10-24T06:37:31.304Z,16.60
2022-10-24T06:39:59.337Z,16.40
2022-10-24T06:42:27.502Z,16.40
2022-10-24T06:44:56.982Z,16.30
2022-10-24T06:47:25.104Z,16.20
2022-10-24T06:49:53.130Z,16.20
2022-10-24T06:52:21.227Z,16.30
2022-10-24T06:54:49.473Z,16.20
2022-10-24T06:57:18.143Z,16.00
2022-10-24T06:59:46.420Z,16.00
2022-10-24T07:02:17.153Z,16.00
2022-10-24T07:04:45.371Z,15.90
2022-10-24T07:07:16.210Z,16.10
2022-10-24T07:09:44.461Z,16.20
2022-10-24T07:12:12.692Z,16.20
2022-10-24T07:14:42.110Z,16.20
2022-10-24T07:17:10.149Z,16.10
2022-10-24T07:19:39.519Z,16.10
2022-10-24T07:22:07.676Z,16.00
2022-10-24T07:24:35.808Z,16.00
2022-10-24T07:27:04.097Z,16.00
2022-10-24T07:29:32.254Z,16.00
2022-10-24T07:32:02.022Z,16.00
2022-10-24T07:34:30.181Z,15.90
2022-10-24T07:36:59.674Z,15.90
2022-10-24T07:39:27.763Z,15.90
2022-10-24T07:41:55.773Z,16.00
2022-10-24T07:44:23.919Z,16.10
2022-10-24T07:46:52.103Z,16.10
2022-10-24T07:49:20.341Z,16.20
2022-10-24T07:51:48.356Z,16.10
2022-10-24T07:54:17.745Z,16.10
2022-10-24T07:56:45.868Z,16.10
2022-10-24T07:59:37.001Z,16.00
2022-10-24T08:02:02.059Z,16.00
2022-10-24T08:04:30.538Z,16.00
2022-10-24T08:06:58.965Z,16.10
2022-10-24T08:09:28.408Z,16.10
2022-10-24T08:11:56.510Z,16.00
2022-10-24T08:14:24.538Z,16.00
2022-10-24T08:16:52.765Z,16.00
2022-10-24T08:19:21.115Z,15.80
2022-10-24T08:21:50.353Z,15.70
2022-10-24T08:24:18.588Z,15.80
2022-10-24T08:26:48.969Z,15.80
2022-10-24T08:29:22.321Z,15.80
2022-10-24T08:31:51.380Z,15.90
2022-10-24T08:34:19.730Z,15.80
2022-10-24T08:36:50.748Z,15.80
2022-10-24T08:39:19.762Z,15.80
2022-10-24T08:41:54.507Z,15.90
2022-10-24T08:44:30.321Z,16.00
2022-10-24T08:47:03.571Z,16.00
2022-10-24T08:49:39.013Z,15.90
2022-10-24T08:52:18.749Z,16.00
2022-10-24T08:54:47.822Z,16.10
2022-10-24T08:57:22.883Z,16.00
2022-10-24T08:59:53.897Z,16.00
2022-10-24T09:02:26.698Z,16.10
2022-10-24T09:04:58.383Z,16.10
2022-10-24T09:07:27.091Z,16.20
2022-10-24T09:10:06.971Z,16.30
2022-10-24T09:12:37.306Z,16.30
2022-10-24T09:15:15.214Z,16.20
2022-10-24T09:17:44.400Z,16.10
2022-10-24T09:20:23.578Z,16.10
2022-10-24T09:22:51.827Z,16.20
2022-10-24T09:25:23.526Z,16.20
2022-10-24T09:27:53.189Z,16.20
2022-10-24T09:30:28.571Z,16.10
2022-10-24T09:33:12.912Z,16.20
2022-10-24T09:35:43.190Z,16.30
2022-10-24T09:38:33.746Z,16.30
2022-10-24T09:41:05.195Z,16.30
2022-10-24T09:43:39.868Z,16.30
2022-10-24T09:46:10.471Z,16.20
2022-10-24T09:48:50.750Z,16.40
2022-10-24T09:51:21.634Z,16.40
2022-10-24T09:54:02.372Z,16.30
2022-10-24T09:56:36.122Z,16.20
2022-10-24T09:59:37.544Z,16.20
2022-10-24T10:02:26.026Z,16.20
2022-10-24T10:05:17.943Z,16.20
2022-10-24T10:07:48.667Z,16.20
2022-10-24T10:10:30.495Z,16.10
2022-10-24T10:13:02.858Z,16.10
2022-10-24T10:15:35.860Z,16.10
2022-10-24T10:18:07.559Z,16.00
2022-10-24T10:20:39.659Z,16.00
2022-10-24T10:23:24.453Z,16.00
2022-10-24T10:26:07.764Z,16.00
2022-10-24T10:28:41.564Z,16.00
2022-10-24T10:31:11.850Z,16.10
2022-10-24T10:33:46.556Z,16.10
2022-10-24T10:36:20.665Z,16.10
2022-10-24T10:38:52.901Z,16.20
2022-10-24T10:41:38.670Z,16.20
2022-10-24T10:44:25.106Z,16.30
2022-10-24T10:47:07.265Z,16.40
2022-10-24T10:49:40.136Z,16.50
2022-10-24T10:52:13.065Z,16.60
2022-10-24T10:55:07.243Z,16.70
2022-10-24T10:57:44.373Z,16.60
2022-10-24T11:00:16.499Z,16.60
2022-10-24T11:03:23.853Z,16.70
2022-10-24T11:06:06.080Z,16.80
2022-10-24T11:08:59.334Z,16.70
2022-10-24T11:11:32.785Z,16.80
2022-10-24T11:14:17.266Z,16.60
2022-10-24T11:16:46.873Z,16.50
2022-10-24T11:19:24.818Z,16.50
2022-10-24T11:21:55.565Z,16.50
2022-10-24T11:24:25.110Z,16.50
2022-10-24T11:26:59.631Z,16.60
2022-10-24T11:29:33.566Z,16.60
2022-10-24T11:32:08.307Z,16.60
2022-10-24T11:34:43.518Z,16.60
2022-10-24T11:37:18.774Z,16.70
2022-10-24T11:39:53.773Z,16.80
2022-10-24T11:42:28.257Z,16.80
2022-10-24T11:45:02.468Z,16.90
2022-10-24T11:47:58.188Z,17.00
2022-10-24T11:50:34.244Z,17.00
2022-10-24T11:53:18.318Z,17.00
2022-10-24T11:55:53.655Z,17.00
2022-10-24T11:58:23.535Z,17.10
2022-10-24T12:01:12.597Z,17.10
2022-10-24T12:04:31.913Z,17.10
2022-10-24T12:07:26.808Z,17.20
2022-10-24T12:10:16.289Z,17.10
2022-10-24T12:13:04.130Z,17.10
2022-10-24T12:15:43.656Z,17.10
2022-10-24T12:18:14.794Z,17.10
2022-10-24T12:20:43.534Z,16.90
2022-10-24T12:23:19.966Z,16.80
2022-10-24T12:26:02.256Z,16.90
2022-10-24T12:28:30.462Z,16.90
2022-10-24T12:31:11.822Z,17.00
2022-10-24T12:33:40.069Z,16.90
2022-10-24T12:36:08.840Z,16.90
2022-10-24T12:39:09.902Z,16.90
2022-10-24T12:41:42.040Z,16.80
2022-10-24T12:44:41.204Z,16.90
2022-10-24T12:47:35.126Z,16.90
2022-10-24T12:50:40.554Z,16.90
2022-10-24T12:53:34.215Z,17.00
2022-10-24T12:56:20.169Z,17.10
2022-10-24T12:59:02.451Z,17.10
2022-10-24T13:01:40.777Z,17.20
2022-10-24T13:07:39.390Z,17.20
2022-10-24T13:10:23.734Z,17.20
2022-10-24T13:13:10.733Z,17.30
2022-10-24T13:15:48.004Z,17.30
2022-10-24T13:18:32.965Z,17.30
2022-10-24T13:21:18.234Z,17.40
2022-10-24T13:23:48.512Z,17.50
2022-10-24T13:26:38.381Z,17.50
2022-10-24T13:29:12.554Z,17.50
2022-10-24T13:31:52.149Z,17.50
2022-10-24T13:34:33.563Z,17.50
2022-10-24T13:37:09.552Z,17.50
2022-10-24T13:39:42.500Z,17.40
2022-10-24T13:42:24.345Z,17.50
2022-10-24T13:44:56.859Z,17.40
2022-10-24T13:47:31.535Z,17.40
2022-10-24T13:50:02.284Z,17.40
2022-10-24T13:52:38.158Z,17.40
2022-10-24T13:55:19.677Z,17.40
2022-10-24T13:57:53.860Z,17.50
2022-10-24T14:00:24.787Z,17.50
2022-10-24T14:02:55.549Z,17.40
2022-10-24T14:05:34.528Z,17.30
2022-10-24T14:08:03.336Z,17.20
2022-10-24T14:10:32.148Z,17.30
2022-10-24T14:13:01.323Z,17.20
2022-10-24T14:15:32.854Z,17.20
2022-10-24T14:18:04.668Z,17.20
2022-10-24T14:20:34.382Z,17.30
2022-10-24T14:23:02.967Z,17.20
2022-10-24T14:25:35.362Z,17.20
2022-10-24T14:28:10.418Z,17.20
2022-10-24T14:30:39.092Z,17.30
2022-10-24T14:33:23.174Z,17.40
2022-10-24T14:35:55.203Z,17.50
2022-10-24T14:38:26.987Z,17.60
2022-10-24T14:41:07.959Z,18.00
2022-10-24T14:43:40.036Z,18.80
2022-10-24T14:46:30.635Z,19.50
2022-10-24T14:49:21.909Z,19.80
2022-10-24T14:54:23.025Z,20.20
2022-10-24T14:56:53.670Z,20.20
2022-10-24T14:59:26.581Z,20.10
2022-10-24T15:01:59.922Z,19.70
2022-10-24T15:04:39.621Z,19.40
2022-10-24T15:07:20.875Z,19.30
2022-10-24T15:09:56.714Z,19.20
2022-10-24T15:12:33.255Z,19.10
2022-10-24T15:15:22.804Z,18.90
2022-10-24T15:17:52.001Z,18.70
2022-10-24T15:20:24.250Z,18.60
2022-10-24T15:22:55.541Z,18.50
2022-10-24T15:25:28.592Z,18.40
2022-10-24T15:28:00.209Z,18.50
2022-10-24T15:30:30.475Z,18.40
2022-10-24T15:33:00.658Z,18.40
2022-10-24T15:35:31.442Z,18.30
2022-10-24T15:38:01.808Z,18.20
2022-10-24T15:40:33.746Z,18.00
2022-10-24T15:43:02.537Z,17.90
2022-10-24T15:45:30.641Z,17.90
2022-10-24T15:47:58.611Z,17.80
2022-10-24T15:50:26.685Z,17.80
2022-10-24T15:52:57.542Z,17.70
2022-10-24T15:55:28.227Z,17.70
2022-10-24T15:57:57.114Z,17.60
2022-10-24T16:00:26.065Z,17.60
2022-10-24T16:02:57.645Z,17.50
2022-10-24T16:05:28.385Z,17.40
2022-10-24T16:07:57.748Z,17.40
2022-10-24T16:10:25.903Z,17.30
2022-10-24T16:12:54.042Z,17.20
2022-10-24T16:15:25.726Z,17.20
2022-10-24T16:17:54.145Z,17.20
2022-10-24T16:20:22.610Z,17.00
2022-10-24T16:22:51.128Z,16.90
2022-10-24T16:25:22.532Z,16.90
2022-10-24T16:27:50.549Z,16.90
2022-10-24T16:30:21.366Z,16.80
2022-10-24T16:32:50.444Z,16.70
2022-10-24T16:35:26.120Z,16.70
2022-10-24T16:37:54.966Z,16.60
2022-10-24T16:40:26.986Z,16.50
2022-10-24T16:42:57.080Z,16.40
2022-10-24T16:45:26.368Z,16.30
2022-10-24T16:47:54.452Z,16.10
2022-10-24T16:50:26.166Z,16.10
2022-10-24T16:52:55.704Z,16.20
2022-10-24T16:55:25.309Z,16.20
2022-10-24T16:57:53.590Z,16.00
2022-10-24T17:00:23.451Z,15.60
2022-10-24T17:02:53.315Z,15.70
2022-10-24T17:05:23.257Z,15.40
2022-10-24T17:07:51.841Z,15.40
2022-10-24T17:10:22.306Z,15.40
2022-10-24T17:12:54.446Z,15.40
2022-10-24T17:15:23.017Z,15.30
2022-10-24T17:17:51.258Z,15.30
2022-10-24T17:20:19.637Z,15.20
2022-10-24T17:22:48.593Z,15.20
2022-10-24T17:25:20.908Z,15.20
2022-10-24T17:27:50.045Z,15.10
2022-10-24T17:30:23.506Z,15.00
2022-10-24T17:32:52.152Z,14.90
2022-10-24T17:35:23.004Z,14.90
2022-10-24T17:38:05.679Z,14.80
2022-10-24T17:40:43.057Z,14.70
2022-10-24T17:43:19.543Z,14.70
2022-10-24T17:45:50.320Z,14.70
2022-10-24T17:48:18.964Z,14.70
2022-10-24T17:50:47.618Z,14.80
2022-10-24T17:53:17.001Z,14.70
2022-10-24T17:55:47.081Z,14.70
2022-10-24T17:58:16.676Z,14.60
2022-10-24T18:00:45.456Z,14.50
2022-10-24T18:03:15.575Z,14.50
2022-10-24T18:05:43.795Z,14.50
2022-10-24T18:08:16.355Z,14.50
2022-10-24T18:10:44.416Z,14.50
2022-10-24T18:13:12.551Z,14.50
2022-10-24T18:15:40.681Z,14.50
2022-10-24T18:18:09.402Z,14.50
2022-10-24T18:20:38.983Z,14.40
2022-10-24T18:23:07.005Z,14.40
2022-10-24T18:25:35.093Z,14.20
2022-10-24T18:28:03.257Z,14.20
2022-10-24T18:30:31.637Z,14.40
2022-10-24T18:32:59.967Z,14.10
2022-10-24T18:35:30.404Z,14.10
2022-10-24T18:37:59.843Z,14.00
2022-10-24T18:40:28.392Z,14.00
2022-10-24T18:43:02.561Z,13.90
2022-10-24T18:45:31.564Z,13.80
2022-10-24T18:47:59.999Z,13.80
2022-10-24T18:50:31.603Z,13.80
2022-10-24T18:53:05.241Z,13.80
2022-10-24T18:55:36.052Z,13.80
2022-10-24T18:58:05.051Z,13.80
2022-10-24T19:00:40.890Z,13.90
2022-10-24T19:03:22.914Z,13.90
2022-10-24T19:05:56.899Z,13.90
2022-10-24T19:08:27.921Z,13.90
2022-10-24T19:10:56.982Z,13.90
2022-10-24T19:13:26.126Z,14.00
2022-10-24T19:15:58.596Z,14.00
2022-10-24T19:18:28.797Z,14.00
2022-10-24T19:20:57.205Z,14.10
2022-10-24T19:23:26.754Z,14.10
2022-10-24T19:25:55.084Z,14.40
2022-10-24T19:28:23.258Z,14.50
2022-10-24T19:30:51.891Z,14.70
2022-10-24T19:33:20.836Z,14.80
2022-10-24T19:35:49.080Z,14.60
2022-10-24T19:38:17.945Z,14.60
2022-10-24T19:40:48.494Z,14.60
2022-10-24T19:43:16.807Z,14.80
2022-10-24T19:45:50.118Z,15.00
2022-10-24T19:48:18.975Z,14.90
2022-10-24T19:50:47.207Z,14.80
2022-10-24T19:53:15.841Z,14.80
2022-10-24T19:55:44.756Z,14.90
2022-10-24T19:58:18.851Z,14.80
2022-10-24T20:00:48.168Z,14.80
2022-10-24T20:03:17.271Z,14.70
2022-10-24T20:05:46.801Z,14.80
2022-10-24T20:08:15.215Z,14.70
2022-10-24T20:10:43.282Z,14.60
2022-10-24T20:13:11.754Z,14.50
2022-10-24T20:15:41.576Z,14.60
2022-10-24T20:18:09.627Z,14.60
2022-10-24T20:20:37.899Z,14.60
2022-10-24T20:23:06.137Z,14.60
2022-10-24T20:25:34.709Z,14.50
2022-10-24T20:28:03.660Z,14.40
2022-10-24T20:30:31.851Z,14.30
2022-10-24T20:33:01.311Z,14.30
2022-10-24T20:35:30.176Z,14.20
2022-10-24T20:37:58.259Z,13.80
2022-10-24T20:40:26.543Z,13.60
2022-10-24T20:42:54.992Z,13.40
2022-10-24T20:45:23.362Z,13.40
2022-10-24T20:47:51.542Z,13.40
2022-10-24T20:50:21.203Z,13.30
2022-10-24T20:52:49.494Z,13.30
2022-10-24T20:55:31.751Z,13.30
2022-10-24T20:58:00.280Z,13.30
2022-10-24T21:00:28.444Z,13.40
2022-10-24T21:02:56.516Z,13.30
2022-10-24T21:05:27.429Z,13.40
2022-10-24T21:07:55.760Z,13.30
2022-10-24T21:10:24.176Z,13.40
2022-10-24T21:12:52.574Z,13.50
2022-10-24T21:15:20.878Z,13.40
2022-10-24T21:17:49.197Z,13.40
2022-10-24T21:20:17.692Z,13.30
2022-10-24T21:22:47.563Z,13.30
2022-10-24T21:25:15.736Z,13.20
2022-10-24T21:27:44.017Z,13.10
2022-10-24T21:30:14.792Z,13.00
2022-10-24T21:32:43.335Z,12.90
2022-10-24T21:35:11.632Z,12.90
2022-10-24T21:37:42.675Z,12.80
2022-10-24T21:40:13.100Z,12.80
2022-10-24T21:42:41.211Z,12.70
2022-10-24T21:45:09.884Z,12.80
2022-10-24T21:47:38.050Z,12.70
2022-10-24T21:50:06.791Z,12.70
2022-10-24T21:52:35.421Z,12.70
2022-10-24T21:55:03.558Z,12.60
2022-10-24T21:57:33.141Z,12.70
2022-10-24T22:00:01.181Z,12.80
2022-10-24T22:02:29.389Z,12.80
2022-10-24T22:04:57.611Z,12.60
2022-10-24T22:09:55.040Z,12.50
2022-10-24T22:12:23.165Z,12.60
2022-10-24T22:14:52.518Z,12.50
2022-10-24T22:17:20.548Z,12.40
2022-10-24T22:19:48.557Z,12.40
2022-10-24T22:22:17.193Z,12.30
2022-10-24T22:24:45.236Z,12.30
2022-10-24T22:27:13.277Z,12.20
2022-10-24T22:29:41.423Z,12.10
2022-10-24T22:32:15.654Z,12.20
2022-10-24T22:34:44.276Z,12.10
2022-10-24T22:37:25.706Z,12.10
2022-10-24T22:39:54.277Z,12.10
2022-10-24T22:42:22.786Z,12.10
2022-10-24T22:44:51.385Z,12.00
2022-10-24T22:47:50.934Z,12.00
2022-10-24T22:50:36.769Z,12.00
2022-10-24T22:53:06.295Z,11.90
2022-10-24T22:55:37.730Z,11.90
2022-10-24T22:58:06.275Z,11.90
2022-10-24T23:00:34.809Z,11.90
2022-10-24T23:03:12.683Z,11.90
2022-10-24T23:05:48.646Z,11.90
2022-10-24T23:08:27.043Z,11.90
2022-10-24T23:10:55.762Z,11.80
2022-10-24T23:13:24.462Z,11.80
2022-10-24T23:15:55.574Z,11.80
2022-10-24T23:18:25.555Z,11.80
2022-10-24T23:20:59.746Z,11.80
2022-10-24T23:23:29.749Z,11.80
2022-10-24T23:26:04.785Z,11.70
2022-10-24T23:28:40.865Z,11.70
2022-10-24T23:31:09.482Z,11.70
2022-10-24T23:33:39.536Z,11.70
2022-10-24T23:36:08.595Z,11.80
2022-10-24T23:38:37.228Z,11.70
2022-10-24T23:41:05.891Z,11.60
2022-10-24T23:43:34.413Z,11.60
2022-10-24T23:46:07.981Z,11.50
2022-10-24T23:48:54.447Z,11.50
2022-10-24T23:51:31.106Z,11.50
2022-10-24T23:53:59.868Z,11.50
2022-10-24T23:56:30.068Z,11.50
2022-10-24T23:58:58.165Z,11.50
